sensor_id;sensor_type;location;lat;lon;timestamp;P1;durP1;ratioP1;P2;durP2;ratioP2
84623;SDS011;74849;51.340;12.610;2024-01-30T05:31:28;9.55;;;3.40;;
84623;SDS011;74849;51.340;12.610;2024-01-30T05:33:55;12.88;;;4.32;;
84623;SDS011;74849;51.340;12.610;2024-01-30T05:36:22;14.23;;;5.30;;
84623;SDS011;74849;51.340;12.610;2024-01-30T05:38:49;7.97;;;3.75;;
84623;SDS011;74849;51.340;12.610;2024-01-30T05:41:15;13.00;;;4.88;;
84623;SDS011;74849;51.340;12.610;2024-01-30T05:43:42;12.68;;;4.60;;
84623;SDS011;74849;51.340;12.610;2024-01-30T05:46:09;8.43;;;3.95;;
84623;SDS011;74849;51.340;12.610;2024-01-30T05:48:36;8.80;;;4.07;;
84623;SDS011;74849;51.340;12.610;2024-01-30T05:51:03;7.90;;;3.60;;
84623;SDS011;74849;51.340;12.610;2024-01-30T05:53:30;7.43;;;4.03;;
84623;SDS011;74849;51.340;12.610;2024-01-30T05:55:57;7.93;;;4.28;;
84623;SDS011;74849;51.340;12.610;2024-01-30T05:58:25;6.90;;;3.42;;
84623;SDS011;74849;51.340;12.610;2024-01-30T06:00:52;6.07;;;3.05;;
84623;SDS011;74849;51.340;12.610;2024-01-30T06:03:19;6.40;;;2.97;;
84623;SDS011;74849;51.340;12.610;2024-01-30T06:05:45;8.73;;;3.92;;
84623;SDS011;74849;51.340;12.610;2024-01-30T06:08:12;8.63;;;2.90;;
84623;SDS011;74849;51.340;12.610;2024-01-30T06:10:39;10.50;;;3.33;;
84623;SDS011;74849;51.340;12.610;2024-01-30T06:13:06;8.63;;;3.03;;
84623;SDS011;74849;51.340;12.610;2024-01-30T06:15:33;6.22;;;3.08;;
84623;SDS011;74849;51.340;12.610;2024-01-30T06:18:00;8.35;;;3.15;;
84623;SDS011;74849;51.340;12.610;2024-01-30T06:20:27;5.43;;;3.03;;
84623;SDS011;74849;51.340;12.610;2024-01-30T06:22:54;5.90;;;2.65;;
84623;SDS011;74849;51.340;12.610;2024-01-30T06:25:21;7.95;;;3.50;;
84623;SDS011;74849;51.340;12.610;2024-01-30T06:27:48;5.15;;;2.78;;
84623;SDS011;74849;51.340;12.610;2024-01-30T06:30:15;5.55;;;2.47;;
84623;SDS011;74849;51.340;12.610;2024-01-30T06:32:42;6.97;;;2.92;;
84623;SDS011;74849;51.340;12.610;2024-01-30T06:35:09;6.38;;;2.88;;
84623;SDS011;74849;51.340;12.610;2024-01-30T06:37:36;8.00;;;2.70;;
84623;SDS011;74849;51.340;12.610;2024-01-30T06:40:03;9.30;;;4.43;;
84623;SDS011;74849;51.340;12.610;2024-01-30T06:42:31;18.17;;;7.82;;
84623;SDS011;74849;51.340;12.610;2024-01-30T06:44:57;18.90;;;7.30;;
84623;SDS011;74849;51.340;12.610;2024-01-30T06:47:24;9.18;;;3.05;;
84623;SDS011;74849;51.340;12.610;2024-01-30T06:49:51;6.70;;;3.20;;
84623;SDS011;74849;51.340;12.610;2024-01-30T06:52:18;10.90;;;5.47;;
84623;SDS011;74849;51.340;12.610;2024-01-30T06:54:45;16.58;;;9.70;;
84623;SDS011;74849;51.340;12.610;2024-01-30T06:57:12;19.17;;;11.20;;
84623;SDS011;74849;51.340;12.610;2024-01-30T06:59:40;12.40;;;6.10;;
84623;SDS011;74849;51.340;12.610;2024-01-30T07:02:10;7.80;;;3.15;;
84623;SDS011;74849;51.340;12.610;2024-01-30T07:04:36;8.13;;;3.22;;
84623;SDS011;74849;51.340;12.610;2024-01-30T07:07:04;7.35;;;2.75;;
84623;SDS011;74849;51.340;12.610;2024-01-30T07:09:31;7.85;;;2.83;;
84623;SDS011;74849;51.340;12.610;2024-01-30T07:11:58;5.20;;;2.67;;
84623;SDS011;74849;51.340;12.610;2024-01-30T07:14:25;4.57;;;2.33;;
84623;SDS011;74849;51.340;12.610;2024-01-30T07:16:52;8.30;;;3.10;;
84623;SDS011;74849;51.340;12.610;2024-01-30T07:19:19;5.88;;;2.70;;
84623;SDS011;74849;51.340;12.610;2024-01-30T07:21:45;6.55;;;2.92;;
84623;SDS011;74849;51.340;12.610;2024-01-30T07:24:12;4.25;;;2.30;;
84623;SDS011;74849;51.340;12.610;2024-01-30T07:26:39;7.43;;;3.42;;
84623;SDS011;74849;51.340;12.610;2024-01-30T07:29:07;4.82;;;2.60;;
84623;SDS011;74849;51.340;12.610;2024-01-30T07:31:33;5.20;;;2.15;;
84623;SDS011;74849;51.340;12.610;2024-01-30T07:34:00;4.65;;;2.55;;
84623;SDS011;74849;51.340;12.610;2024-01-30T07:36:28;5.65;;;3.13;;
84623;SDS011;74849;51.340;12.610;2024-01-30T07:38:55;8.73;;;3.97;;
84623;SDS011;74849;51.340;12.610;2024-01-30T07:41:22;10.85;;;4.20;;
84623;SDS011;74849;51.340;12.610;2024-01-30T07:43:50;8.43;;;3.78;;
84623;SDS011;74849;51.340;12.610;2024-01-30T07:46:19;6.53;;;3.50;;
84623;SDS011;74849;51.340;12.610;2024-01-30T07:48:46;7.00;;;2.80;;
84623;SDS011;74849;51.340;12.610;2024-01-30T07:51:13;6.50;;;2.70;;
84623;SDS011;74849;51.340;12.610;2024-01-30T07:53:40;6.22;;;2.83;;
84623;SDS011;74849;51.340;12.610;2024-01-30T07:56:07;8.63;;;3.45;;
84623;SDS011;74849;51.340;12.610;2024-01-30T07:58:34;8.25;;;3.78;;
84623;SDS011;74849;51.340;12.610;2024-01-30T08:01:01;6.50;;;3.05;;
84623;SDS011;74849;51.340;12.610;2024-01-30T08:03:28;5.40;;;3.30;;
84623;SDS011;74849;51.340;12.610;2024-01-30T08:05:55;6.32;;;2.80;;
84623;SDS011;74849;51.340;12.610;2024-01-30T08:08:22;6.40;;;3.30;;
84623;SDS011;74849;51.340;12.610;2024-01-30T08:10:49;7.22;;;3.78;;
84623;SDS011;74849;51.340;12.610;2024-01-30T08:13:16;5.60;;;3.00;;
84623;SDS011;74849;51.340;12.610;2024-01-30T08:15:43;7.93;;;4.07;;
84623;SDS011;74849;51.340;12.610;2024-01-30T08:18:10;7.53;;;3.40;;
84623;SDS011;74849;51.340;12.610;2024-01-30T08:20:37;5.85;;;2.95;;
84623;SDS011;74849;51.340;12.610;2024-01-30T08:23:03;7.53;;;3.03;;
84623;SDS011;74849;51.340;12.610;2024-01-30T08:25:30;6.88;;;3.42;;
84623;SDS011;74849;51.340;12.610;2024-01-30T08:27:57;5.95;;;3.08;;
84623;SDS011;74849;51.340;12.610;2024-01-30T08:30:24;8.05;;;2.95;;
84623;SDS011;74849;51.340;12.610;2024-01-30T08:32:51;8.73;;;3.08;;
84623;SDS011;74849;51.340;12.610;2024-01-30T08:35:18;7.10;;;3.00;;
84623;SDS011;74849;51.340;12.610;2024-01-30T08:37:45;6.95;;;3.30;;
84623;SDS011;74849;51.340;12.610;2024-01-30T08:40:12;7.25;;;3.33;;
84623;SDS011;74849;51.340;12.610;2024-01-30T08:42:39;6.20;;;3.10;;
84623;SDS011;74849;51.340;12.610;2024-01-30T08:45:06;7.20;;;3.53;;
84623;SDS011;74849;51.340;12.610;2024-01-30T08:47:34;5.65;;;2.70;;
84623;SDS011;74849;51.340;12.610;2024-01-30T08:50:00;5.28;;;2.28;;
84623;SDS011;74849;51.340;12.610;2024-01-30T08:52:28;5.63;;;3.25;;
84623;SDS011;74849;51.340;12.610;2024-01-30T08:54:55;9.32;;;3.42;;
84623;SDS011;74849;51.340;12.610;2024-01-30T08:57:21;4.90;;;3.10;;
84623;SDS011;74849;51.340;12.610;2024-01-30T08:59:48;7.13;;;3.47;;
84623;SDS011;74849;51.340;12.610;2024-01-30T09:02:15;7.65;;;3.10;;
84623;SDS011;74849;51.340;12.610;2024-01-30T09:04:43;5.75;;;3.08;;
84623;SDS011;74849;51.340;12.610;2024-01-30T09:07:10;6.95;;;3.22;;
84623;SDS011;74849;51.340;12.610;2024-01-30T09:09:39;7.63;;;3.90;;
84623;SDS011;74849;51.340;12.610;2024-01-30T09:12:07;7.22;;;3.88;;
84623;SDS011;74849;51.340;12.610;2024-01-30T09:14:35;6.95;;;3.70;;
84623;SDS011;74849;51.340;12.610;2024-01-30T09:17:03;8.75;;;3.22;;
84623;SDS011;74849;51.340;12.610;2024-01-30T09:19:30;7.78;;;3.65;;
84623;SDS011;74849;51.340;12.610;2024-01-30T09:21:57;8.13;;;4.15;;
84623;SDS011;74849;51.340;12.610;2024-01-30T09:24:25;7.50;;;3.97;;
84623;SDS011;74849;51.340;12.610;2024-01-30T09:26:52;6.10;;;3.38;;
84623;SDS011;74849;51.340;12.610;2024-01-30T09:29:19;8.95;;;3.55;;
84623;SDS011;74849;51.340;12.610;2024-01-30T09:31:46;8.05;;;3.50;;
84623;SDS011;74849;51.340;12.610;2024-01-30T09:34:13;6.30;;;3.33;;
84623;SDS011;74849;51.340;12.610;2024-01-30T09:36:40;7.05;;;3.67;;
84623;SDS011;74849;51.340;12.610;2024-01-30T09:39:07;8.35;;;4.28;;
84623;SDS011;74849;51.340;12.610;2024-01-30T09:41:36;9.85;;;3.75;;
84623;SDS011;74849;51.340;12.610;2024-01-30T09:44:17;6.85;;;3.25;;
84623;SDS011;74849;51.340;12.610;2024-01-30T09:46:47;7.13;;;3.53;;
84623;SDS011;74849;51.340;12.610;2024-01-30T09:49:14;6.75;;;3.95;;
84623;SDS011;74849;51.340;12.610;2024-01-30T09:51:41;6.95;;;3.45;;
84623;SDS011;74849;51.340;12.610;2024-01-30T09:54:08;5.78;;;3.15;;
84623;SDS011;74849;51.340;12.610;2024-01-30T09:56:36;6.03;;;3.53;;
84623;SDS011;74849;51.340;12.610;2024-01-30T09:59:03;10.85;;;4.00;;
84623;SDS011;74849;51.340;12.610;2024-01-30T10:01:30;8.95;;;3.47;;
84623;SDS011;74849;51.340;12.610;2024-01-30T10:03:58;6.68;;;3.72;;
84623;SDS011;74849;51.340;12.610;2024-01-30T10:06:24;11.82;;;4.03;;
84623;SDS011;74849;51.340;12.610;2024-01-30T10:08:51;6.85;;;3.22;;
84623;SDS011;74849;51.340;12.610;2024-01-30T10:11:18;8.05;;;4.03;;
84623;SDS011;74849;51.340;12.610;2024-01-30T10:13:45;9.93;;;4.10;;
84623;SDS011;74849;51.340;12.610;2024-01-30T10:16:13;8.35;;;3.53;;
84623;SDS011;74849;51.340;12.610;2024-01-30T10:18:42;10.43;;;3.67;;
84623;SDS011;74849;51.340;12.610;2024-01-30T10:21:09;8.65;;;4.20;;
84623;SDS011;74849;51.340;12.610;2024-01-30T10:23:36;7.93;;;3.70;;
84623;SDS011;74849;51.340;12.610;2024-01-30T10:26:04;8.48;;;3.72;;
84623;SDS011;74849;51.340;12.610;2024-01-30T10:28:31;8.23;;;3.97;;
84623;SDS011;74849;51.340;12.610;2024-01-30T10:30:58;9.82;;;3.80;;
84623;SDS011;74849;51.340;12.610;2024-01-30T10:33:26;8.10;;;3.92;;
84623;SDS011;74849;51.340;12.610;2024-01-30T10:36:03;8.57;;;3.75;;
84623;SDS011;74849;51.340;12.610;2024-01-30T10:38:32;6.97;;;4.25;;
84623;SDS011;74849;51.340;12.610;2024-01-30T10:41:00;7.30;;;4.07;;
84623;SDS011;74849;51.340;12.610;2024-01-30T10:43:38;8.35;;;4.03;;
84623;SDS011;74849;51.340;12.610;2024-01-30T10:46:11;9.70;;;4.32;;
84623;SDS011;74849;51.340;12.610;2024-01-30T10:48:46;10.32;;;4.20;;
84623;SDS011;74849;51.340;12.610;2024-01-30T10:51:20;7.70;;;3.83;;
84623;SDS011;74849;51.340;12.610;2024-01-30T10:53:49;8.88;;;4.63;;
84623;SDS011;74849;51.340;12.610;2024-01-30T10:56:17;8.48;;;4.47;;
84623;SDS011;74849;51.340;12.610;2024-01-30T10:58:51;7.75;;;4.32;;
84623;SDS011;74849;51.340;12.610;2024-01-30T11:01:19;9.68;;;5.18;;
84623;SDS011;74849;51.340;12.610;2024-01-30T11:03:51;8.55;;;4.00;;
84623;SDS011;74849;51.340;12.610;2024-01-30T11:06:23;9.30;;;5.18;;
84623;SDS011;74849;51.340;12.610;2024-01-30T11:09:03;8.30;;;4.43;;
84623;SDS011;74849;51.340;12.610;2024-01-30T11:11:51;9.65;;;4.70;;
84623;SDS011;74849;51.340;12.610;2024-01-30T11:14:29;7.80;;;4.40;;
84623;SDS011;74849;51.340;12.610;2024-01-30T11:16:59;10.90;;;5.63;;
84623;SDS011;74849;51.340;12.610;2024-01-30T11:19:27;8.10;;;4.80;;
84623;SDS011;74849;51.340;12.610;2024-01-30T11:21:56;11.70;;;5.32;;
84623;SDS011;74849;51.340;12.610;2024-01-30T11:24:23;11.10;;;5.22;;
84623;SDS011;74849;51.340;12.610;2024-01-30T11:26:57;10.73;;;5.13;;
84623;SDS011;74849;51.340;12.610;2024-01-30T11:29:24;9.80;;;5.22;;
84623;SDS011;74849;51.340;12.610;2024-01-30T11:31:55;9.68;;;4.63;;
84623;SDS011;74849;51.340;12.610;2024-01-30T11:34:23;9.82;;;5.07;;
84623;SDS011;74849;51.340;12.610;2024-01-30T11:36:57;8.88;;;4.65;;
84623;SDS011;74849;51.340;12.610;2024-01-30T11:39:25;7.53;;;4.43;;
84623;SDS011;74849;51.340;12.610;2024-01-30T11:41:52;7.85;;;4.40;;
84623;SDS011;74849;51.340;12.610;2024-01-30T11:44:20;10.05;;;4.65;;
84623;SDS011;74849;51.340;12.610;2024-01-30T11:46:50;8.90;;;4.72;;
84623;SDS011;74849;51.340;12.610;2024-01-30T11:49:18;8.82;;;4.60;;
84623;SDS011;74849;51.340;12.610;2024-01-30T11:51:45;9.48;;;4.47;;
84623;SDS011;74849;51.340;12.610;2024-01-30T11:54:14;9.15;;;5.05;;
84623;SDS011;74849;51.340;12.610;2024-01-30T11:56:42;8.73;;;4.15;;
84623;SDS011;74849;51.340;12.610;2024-01-30T11:59:09;8.85;;;4.72;;
84623;SDS011;74849;51.340;12.610;2024-01-30T12:01:36;11.32;;;4.97;;
84623;SDS011;74849;51.340;12.610;2024-01-30T12:04:03;9.82;;;4.28;;
84623;SDS011;74849;51.340;12.610;2024-01-30T12:06:34;9.98;;;4.85;;
84623;SDS011;74849;51.340;12.610;2024-01-30T12:09:02;10.18;;;4.95;;
84623;SDS011;74849;51.340;12.610;2024-01-30T12:11:44;8.35;;;4.65;;
84623;SDS011;74849;51.340;12.610;2024-01-30T12:14:12;10.73;;;4.38;;
84623;SDS011;74849;51.340;12.610;2024-01-30T12:16:39;8.98;;;4.53;;
84623;SDS011;74849;51.340;12.610;2024-01-30T12:19:07;8.82;;;5.00;;
84623;SDS011;74849;51.340;12.610;2024-01-30T12:21:34;10.57;;;4.88;;
84623;SDS011;74849;51.340;12.610;2024-01-30T12:24:01;7.95;;;4.57;;
84623;SDS011;74849;51.340;12.610;2024-01-30T12:26:28;5.85;;;4.22;;
84623;SDS011;74849;51.340;12.610;2024-01-30T12:28:55;12.18;;;4.53;;
84623;SDS011;74849;51.340;12.610;2024-01-30T12:31:27;10.10;;;5.32;;
84623;SDS011;74849;51.340;12.610;2024-01-30T12:33:54;10.18;;;4.90;;
84623;SDS011;74849;51.340;12.610;2024-01-30T12:36:22;7.72;;;4.32;;
84623;SDS011;74849;51.340;12.610;2024-01-30T12:38:50;11.00;;;4.95;;
84623;SDS011;74849;51.340;12.610;2024-01-30T12:41:17;10.93;;;4.60;;
84623;SDS011;74849;51.340;12.610;2024-01-30T12:43:45;10.15;;;4.60;;
84623;SDS011;74849;51.340;12.610;2024-01-30T12:46:13;12.27;;;5.78;;
84623;SDS011;74849;51.340;12.610;2024-01-30T12:48:42;8.68;;;5.15;;
84623;SDS011;74849;51.340;12.610;2024-01-30T12:51:09;7.18;;;3.80;;
84623;SDS011;74849;51.340;12.610;2024-01-30T12:53:36;11.20;;;5.20;;
84623;SDS011;74849;51.340;12.610;2024-01-30T12:56:03;12.50;;;4.28;;
84623;SDS011;74849;51.340;12.610;2024-01-30T12:58:30;7.60;;;4.03;;
84623;SDS011;74849;51.340;12.610;2024-01-30T13:00:57;7.57;;;4.40;;
84623;SDS011;74849;51.340;12.610;2024-01-30T13:03:24;9.05;;;5.43;;
84623;SDS011;74849;51.340;12.610;2024-01-30T13:05:51;6.72;;;3.95;;
84623;SDS011;74849;51.340;12.610;2024-01-30T13:08:18;9.25;;;4.20;;
84623;SDS011;74849;51.340;12.610;2024-01-30T13:10:45;9.68;;;4.20;;
84623;SDS011;74849;51.340;12.610;2024-01-30T13:13:12;6.63;;;3.95;;
84623;SDS011;74849;51.340;12.610;2024-01-30T13:15:39;8.40;;;4.57;;
84623;SDS011;74849;51.340;12.610;2024-01-30T13:18:06;9.43;;;4.75;;
84623;SDS011;74849;51.340;12.610;2024-01-30T13:20:33;10.00;;;5.40;;
84623;SDS011;74849;51.340;12.610;2024-01-30T13:23:00;16.63;;;8.13;;
84623;SDS011;74849;51.340;12.610;2024-01-30T13:25:26;8.93;;;4.57;;
84623;SDS011;74849;51.340;12.610;2024-01-30T13:27:53;9.70;;;4.47;;
84623;SDS011;74849;51.340;12.610;2024-01-30T13:30:20;6.95;;;4.97;;
84623;SDS011;74849;51.340;12.610;2024-01-30T13:32:47;9.43;;;4.95;;
84623;SDS011;74849;51.340;12.610;2024-01-30T13:35:14;10.52;;;5.15;;
84623;SDS011;74849;51.340;12.610;2024-01-30T13:37:41;7.38;;;4.32;;
84623;SDS011;74849;51.340;12.610;2024-01-30T13:40:08;5.97;;;4.20;;
84623;SDS011;74849;51.340;12.610;2024-01-30T13:42:35;10.07;;;5.30;;
84623;SDS011;74849;51.340;12.610;2024-01-30T13:45:02;10.80;;;5.22;;
84623;SDS011;74849;51.340;12.610;2024-01-30T13:47:30;8.57;;;4.38;;
84623;SDS011;74849;51.340;12.610;2024-01-30T13:49:56;14.23;;;6.07;;
84623;SDS011;74849;51.340;12.610;2024-01-30T13:52:23;7.93;;;4.95;;
84623;SDS011;74849;51.340;12.610;2024-01-30T13:54:50;11.57;;;5.18;;
84623;SDS011;74849;51.340;12.610;2024-01-30T13:57:17;7.13;;;4.53;;
84623;SDS011;74849;51.340;12.610;2024-01-30T13:59:44;9.95;;;5.30;;
84623;SDS011;74849;51.340;12.610;2024-01-30T14:02:11;7.38;;;4.20;;
84623;SDS011;74849;51.340;12.610;2024-01-30T14:04:38;16.33;;;11.70;;
84623;SDS011;74849;51.340;12.610;2024-01-30T14:07:05;10.13;;;5.05;;
84623;SDS011;74849;51.340;12.610;2024-01-30T14:09:32;19.98;;;5.60;;
84623;SDS011;74849;51.340;12.610;2024-01-30T14:12:00;7.47;;;4.65;;
84623;SDS011;74849;51.340;12.610;2024-01-30T14:14:27;7.95;;;4.57;;
84623;SDS011;74849;51.340;12.610;2024-01-30T14:16:54;8.65;;;4.70;;
84623;SDS011;74849;51.340;12.610;2024-01-30T14:19:21;11.38;;;5.30;;
84623;SDS011;74849;51.340;12.610;2024-01-30T14:21:48;10.57;;;5.60;;
84623;SDS011;74849;51.340;12.610;2024-01-30T14:24:15;9.10;;;5.97;;
84623;SDS011;74849;51.340;12.610;2024-01-30T14:26:42;11.20;;;5.47;;
84623;SDS011;74849;51.340;12.610;2024-01-30T14:29:10;10.90;;;5.47;;
84623;SDS011;74849;51.340;12.610;2024-01-30T14:31:36;11.57;;;4.70;;
84623;SDS011;74849;51.340;12.610;2024-01-30T14:34:03;8.35;;;5.03;;
84623;SDS011;74849;51.340;12.610;2024-01-30T14:36:31;12.02;;;5.95;;
84623;SDS011;74849;51.340;12.610;2024-01-30T14:38:58;9.45;;;5.10;;
84623;SDS011;74849;51.340;12.610;2024-01-30T14:41:25;8.77;;;5.43;;
84623;SDS011;74849;51.340;12.610;2024-01-30T14:43:52;10.25;;;5.35;;
84623;SDS011;74849;51.340;12.610;2024-01-30T14:46:19;11.98;;;5.60;;
84623;SDS011;74849;51.340;12.610;2024-01-30T14:48:46;10.48;;;5.75;;
84623;SDS011;74849;51.340;12.610;2024-01-30T14:51:13;8.48;;;4.90;;
84623;SDS011;74849;51.340;12.610;2024-01-30T14:53:40;11.05;;;4.97;;
84623;SDS011;74849;51.340;12.610;2024-01-30T14:56:07;9.68;;;5.10;;
84623;SDS011;74849;51.340;12.610;2024-01-30T14:58:34;7.47;;;4.63;;
84623;SDS011;74849;51.340;12.610;2024-01-30T15:01:01;8.27;;;4.70;;
84623;SDS011;74849;51.340;12.610;2024-01-30T15:03:28;8.18;;;4.20;;
84623;SDS011;74849;51.340;12.610;2024-01-30T15:05:55;9.32;;;5.03;;
84623;SDS011;74849;51.340;12.610;2024-01-30T15:08:22;8.88;;;4.65;;
84623;SDS011;74849;51.340;12.610;2024-01-30T15:10:49;10.85;;;5.00;;
84623;SDS011;74849;51.340;12.610;2024-01-30T15:13:16;9.07;;;5.03;;
84623;SDS011;74849;51.340;12.610;2024-01-30T15:15:43;7.82;;;5.13;;
84623;SDS011;74849;51.340;12.610;2024-01-30T15:18:10;9.18;;;5.07;;
84623;SDS011;74849;51.340;12.610;2024-01-30T15:20:37;7.78;;;4.53;;
84623;SDS011;74849;51.340;12.610;2024-01-30T15:23:04;9.57;;;5.00;;
84623;SDS011;74849;51.340;12.610;2024-01-30T15:25:31;11.35;;;5.35;;
84623;SDS011;74849;51.340;12.610;2024-01-30T15:27:58;7.72;;;4.88;;
84623;SDS011;74849;51.340;12.610;2024-01-30T15:30:25;15.45;;;5.30;;
84623;SDS011;74849;51.340;12.610;2024-01-30T15:32:52;10.75;;;5.30;;
84623;SDS011;74849;51.340;12.610;2024-01-30T15:35:19;8.25;;;4.90;;
84623;SDS011;74849;51.340;12.610;2024-01-30T15:37:46;8.65;;;4.82;;
84623;SDS011;74849;51.340;12.610;2024-01-30T15:40:13;9.98;;;5.32;;
84623;SDS011;74849;51.340;12.610;2024-01-30T15:42:40;11.00;;;4.93;;
84623;SDS011;74849;51.340;12.610;2024-01-30T15:45:07;9.20;;;5.00;;
84623;SDS011;74849;51.340;12.610;2024-01-30T15:47:34;10.68;;;6.03;;
84623;SDS011;74849;51.340;12.610;2024-01-30T15:50:02;14.15;;;6.00;;
84623;SDS011;74849;51.340;12.610;2024-01-30T15:52:30;10.52;;;5.53;;
84623;SDS011;74849;51.340;12.610;2024-01-30T15:54:57;10.88;;;5.88;;
84623;SDS011;74849;51.340;12.610;2024-01-30T15:57:24;8.85;;;4.38;;
84623;SDS011;74849;51.340;12.610;2024-01-30T15:59:51;10.45;;;5.00;;
84623;SDS011;74849;51.340;12.610;2024-01-30T16:02:18;13.35;;;5.53;;
84623;SDS011;74849;51.340;12.610;2024-01-30T16:04:46;10.15;;;6.10;;
84623;SDS011;74849;51.340;12.610;2024-01-30T16:07:13;18.17;;;8.02;;
84623;SDS011;74849;51.340;12.610;2024-01-30T16:09:40;9.88;;;5.32;;
84623;SDS011;74849;51.340;12.610;2024-01-30T16:12:09;10.82;;;5.32;;
84623;SDS011;74849;51.340;12.610;2024-01-30T16:14:36;9.93;;;4.95;;
84623;SDS011;74849;51.340;12.610;2024-01-30T16:17:03;8.35;;;4.63;;
84623;SDS011;74849;51.340;12.610;2024-01-30T16:19:30;11.43;;;5.80;;
84623;SDS011;74849;51.340;12.610;2024-01-30T16:21:58;9.55;;;5.40;;
84623;SDS011;74849;51.340;12.610;2024-01-30T16:24:25;9.55;;;5.30;;
84623;SDS011;74849;51.340;12.610;2024-01-30T16:26:52;8.90;;;5.60;;
84623;SDS011;74849;51.340;12.610;2024-01-30T16:29:19;9.43;;;5.20;;
84623;SDS011;74849;51.340;12.610;2024-01-30T16:31:46;11.23;;;6.30;;
84623;SDS011;74849;51.340;12.610;2024-01-30T16:34:13;8.20;;;5.63;;
84623;SDS011;74849;51.340;12.610;2024-01-30T16:36:40;10.63;;;5.10;;
84623;SDS011;74849;51.340;12.610;2024-01-30T16:39:09;10.82;;;5.60;;
84623;SDS011;74849;51.340;12.610;2024-01-30T16:41:36;9.13;;;5.00;;
84623;SDS011;74849;51.340;12.610;2024-01-30T16:44:04;10.35;;;5.28;;
84623;SDS011;74849;51.340;12.610;2024-01-30T16:46:31;12.02;;;5.57;;
84623;SDS011;74849;51.340;12.610;2024-01-30T16:48:58;9.48;;;5.68;;
84623;SDS011;74849;51.340;12.610;2024-01-30T16:51:25;10.35;;;5.95;;
84623;SDS011;74849;51.340;12.610;2024-01-30T16:53:52;11.02;;;6.50;;
84623;SDS011;74849;51.340;12.610;2024-01-30T16:56:19;17.77;;;9.57;;
84623;SDS011;74849;51.340;12.610;2024-01-30T16:58:46;21.55;;;11.98;;
84623;SDS011;74849;51.340;12.610;2024-01-30T17:01:13;20.98;;;10.05;;
84623;SDS011;74849;51.340;12.610;2024-01-30T17:03:40;22.05;;;11.75;;
84623;SDS011;74849;51.340;12.610;2024-01-30T17:06:10;19.60;;;9.43;;
84623;SDS011;74849;51.340;12.610;2024-01-30T17:08:37;14.82;;;7.68;;
84623;SDS011;74849;51.340;12.610;2024-01-30T17:11:04;15.63;;;7.45;;
84623;SDS011;74849;51.340;12.610;2024-01-30T17:13:31;11.80;;;6.72;;
84623;SDS011;74849;51.340;12.610;2024-01-30T17:15:58;12.60;;;7.45;;
84623;SDS011;74849;51.340;12.610;2024-01-30T17:18:25;12.45;;;6.85;;
84623;SDS011;74849;51.340;12.610;2024-01-30T17:20:52;12.85;;;7.63;;
84623;SDS011;74849;51.340;12.610;2024-01-30T17:23:19;11.57;;;6.63;;
84623;SDS011;74849;51.340;12.610;2024-01-30T17:25:49;14.15;;;7.57;;
84623;SDS011;74849;51.340;12.610;2024-01-30T17:28:16;12.25;;;7.10;;
84623;SDS011;74849;51.340;12.610;2024-01-30T17:30:43;13.70;;;8.00;;
84623;SDS011;74849;51.340;12.610;2024-01-30T17:33:10;16.70;;;9.90;;
84623;SDS011;74849;51.340;12.610;2024-01-30T17:35:37;10.02;;;6.25;;
84623;SDS011;74849;51.340;12.610;2024-01-30T17:38:04;12.20;;;6.82;;
84623;SDS011;74849;51.340;12.610;2024-01-30T17:40:31;12.43;;;6.07;;
84623;SDS011;74849;51.340;12.610;2024-01-30T17:42:58;11.82;;;5.80;;
84623;SDS011;74849;51.340;12.610;2024-01-30T17:45:24;13.65;;;6.00;;
84623;SDS011;74849;51.340;12.610;2024-01-30T17:47:51;11.52;;;6.25;;
84623;SDS011;74849;51.340;12.610;2024-01-30T17:50:19;14.43;;;7.32;;
84623;SDS011;74849;51.340;12.610;2024-01-30T17:52:46;9.70;;;5.85;;
84623;SDS011;74849;51.340;12.610;2024-01-30T17:55:14;13.27;;;9.18;;
84623;SDS011;74849;51.340;12.610;2024-01-30T17:57:41;20.55;;;16.92;;
84623;SDS011;74849;51.340;12.610;2024-01-30T18:00:08;10.27;;;7.18;;
84623;SDS011;74849;51.340;12.610;2024-01-30T18:02:36;15.73;;;9.38;;
84623;SDS011;74849;51.340;12.610;2024-01-30T18:05:03;17.25;;;10.77;;
84623;SDS011;74849;51.340;12.610;2024-01-30T18:07:31;20.15;;;15.38;;
84623;SDS011;74849;51.340;12.610;2024-01-30T18:09:58;12.65;;;6.75;;
84623;SDS011;74849;51.340;12.610;2024-01-30T18:12:25;12.18;;;7.10;;
84623;SDS011;74849;51.340;12.610;2024-01-30T18:14:52;13.27;;;7.80;;
84623;SDS011;74849;51.340;12.610;2024-01-30T18:17:18;13.82;;;6.65;;
84623;SDS011;74849;51.340;12.610;2024-01-30T18:19:45;12.20;;;6.13;;
84623;SDS011;74849;51.340;12.610;2024-01-30T18:22:13;9.20;;;5.88;;
84623;SDS011;74849;51.340;12.610;2024-01-30T18:24:40;12.73;;;7.40;;
84623;SDS011;74849;51.340;12.610;2024-01-30T18:27:07;15.75;;;6.07;;
84623;SDS011;74849;51.340;12.610;2024-01-30T18:29:35;12.65;;;6.72;;
84623;SDS011;74849;51.340;12.610;2024-01-30T18:32:02;14.73;;;7.13;;
84623;SDS011;74849;51.340;12.610;2024-01-30T18:34:29;18.15;;;7.97;;
84623;SDS011;74849;51.340;12.610;2024-01-30T18:36:56;19.63;;;8.02;;
84623;SDS011;74849;51.340;12.610;2024-01-30T18:39:26;13.70;;;6.68;;
84623;SDS011;74849;51.340;12.610;2024-01-30T18:41:53;13.63;;;6.07;;
84623;SDS011;74849;51.340;12.610;2024-01-30T18:44:20;12.05;;;5.72;;
84623;SDS011;74849;51.340;12.610;2024-01-30T18:46:47;13.13;;;6.13;;
84623;SDS011;74849;51.340;12.610;2024-01-30T18:49:15;11.35;;;5.93;;
84623;SDS011;74849;51.340;12.610;2024-01-30T18:51:42;14.48;;;8.45;;
84623;SDS011;74849;51.340;12.610;2024-01-30T18:54:15;12.65;;;8.40;;
84623;SDS011;74849;51.340;12.610;2024-01-30T18:56:42;8.73;;;5.72;;
84623;SDS011;74849;51.340;12.610;2024-01-30T18:59:10;12.13;;;6.28;;
84623;SDS011;74849;51.340;12.610;2024-01-30T19:01:43;14.10;;;7.97;;
84623;SDS011;74849;51.340;12.610;2024-01-30T19:04:10;12.60;;;7.10;;
84623;SDS011;74849;51.340;12.610;2024-01-30T19:06:37;17.50;;;7.47;;
84623;SDS011;74849;51.340;12.610;2024-01-30T19:09:04;16.27;;;8.55;;
84623;SDS011;74849;51.340;12.610;2024-01-30T19:11:36;17.73;;;6.50;;
84623;SDS011;74849;51.340;12.610;2024-01-30T19:14:03;20.88;;;10.00;;
84623;SDS011;74849;51.340;12.610;2024-01-30T19:16:30;11.27;;;5.97;;
84623;SDS011;74849;51.340;12.610;2024-01-30T19:18:57;13.68;;;5.95;;
84623;SDS011;74849;51.340;12.610;2024-01-30T19:21:24;9.57;;;5.63;;
84623;SDS011;74849;51.340;12.610;2024-01-30T19:23:51;11.68;;;5.53;;
84623;SDS011;74849;51.340;12.610;2024-01-30T19:26:20;10.18;;;5.53;;
84623;SDS011;74849;51.340;12.610;2024-01-30T19:28:47;9.10;;;5.60;;
84623;SDS011;74849;51.340;12.610;2024-01-30T19:31:15;15.82;;;7.95;;
84623;SDS011;74849;51.340;12.610;2024-01-30T19:33:42;17.23;;;7.40;;
84623;SDS011;74849;51.340;12.610;2024-01-30T19:36:09;13.27;;;6.40;;
84623;SDS011;74849;51.340;12.610;2024-01-30T19:38:35;16.23;;;8.07;;
84623;SDS011;74849;51.340;12.610;2024-01-30T19:41:02;25.20;;;12.38;;
84623;SDS011;74849;51.340;12.610;2024-01-30T19:43:31;15.75;;;8.40;;
84623;SDS011;74849;51.340;12.610;2024-01-30T19:45:58;14.50;;;8.57;;
84623;SDS011;74849;51.340;12.610;2024-01-30T19:48:25;23.52;;;10.65;;
84623;SDS011;74849;51.340;12.610;2024-01-30T19:50:52;13.23;;;7.95;;
84623;SDS011;74849;51.340;12.610;2024-01-30T19:53:19;14.73;;;6.88;;
84623;SDS011;74849;51.340;12.610;2024-01-30T19:55:46;13.00;;;7.10;;
84623;SDS011;74849;51.340;12.610;2024-01-30T19:58:13;15.25;;;6.65;;
84623;SDS011;74849;51.340;12.610;2024-01-30T20:00:40;14.80;;;7.15;;